»·PEaware :: N1SC KIFP-KPRC

N1SC :: KIFP-KPRC

FLIGHT INFORMATION

Flight Status: Arrived
Operator: Privately registered:
United States
More flights under this callsign
Pilot: Anonymous 10181 (10181)
Aircraft: Unknown
(TBM)
More flights by this aircraft type
Origin: KIFP Laughlin/Bullhead Intl
United States
Destination: KPRC Love
United States
More flights between these airports :: More routes between these airports
Route: EED V12 DRK
File this flight plan on PilotEdge
Remarks: Happy Thursday! <3
Altitude:
(Current/Filed)
23,000ft
Speed:
(Current/Filed)
300kts
Departed: 14-Sep-23 03:49 PM
Arrived: 14-Sep-23 04:30 PM
Distance/Time
Traveled:
110nm/0:41
Distance/Time
To Go:
Arrived

Flight Plot

Page will automatically refresh every two minutes.

Flight plan parsing failed; only flown route is shown


Map Options




Map Legend


Flown Route
Filed Route
Departure Airport
Arrival Airport
Navaid (VOR, NDB)
Fix

Horizontal Profiles

Position Reports

Time Latitude Longitude Heading Altitude Ground
Speed
14-Sep-23 15:17 35.164756 -114.556300 85 644ft 0kts
14-Sep-23 15:18 35.164756 -114.556300 85 644ft 0kts
14-Sep-23 15:19 35.164756 -114.556300 85 644ft 0kts
14-Sep-23 15:20 35.164756 -114.556300 85 644ft 0kts
14-Sep-23 15:21 35.164756 -114.556300 85 644ft 0kts
14-Sep-23 15:22 35.164756 -114.556300 85 644ft 0kts
14-Sep-23 15:23 35.164756 -114.556300 85 644ft 0kts
14-Sep-23 15:24 35.164756 -114.556300 85 635ft 0kts
14-Sep-23 15:25 35.164756 -114.556300 85 635ft 0kts
14-Sep-23 15:26 35.164756 -114.556300 85 635ft 0kts
14-Sep-23 15:27 35.164756 -114.556300 85 635ft 0kts
14-Sep-23 15:28 35.164756 -114.556300 85 635ft 0kts
14-Sep-23 15:29 35.164756 -114.556300 85 635ft 0kts
14-Sep-23 15:30 35.164756 -114.556300 85 635ft 0kts
14-Sep-23 15:34 35.164756 -114.556300 85 635ft 0kts
14-Sep-23 15:35 35.164756 -114.556300 85 635ft 0kts
14-Sep-23 15:36 35.164756 -114.556300 85 635ft 0kts
14-Sep-23 15:37 35.164756 -114.556300 85 635ft 0kts
14-Sep-23 15:38 35.164756 -114.556300 85 635ft 0kts
14-Sep-23 15:39 35.164756 -114.556300 85 635ft 0kts
14-Sep-23 15:40 35.164756 -114.556300 85 635ft 0kts
14-Sep-23 15:41 35.164756 -114.556300 85 635ft 0kts
14-Sep-23 15:42 35.164756 -114.556300 85 635ft 0kts
14-Sep-23 15:43 35.164756 -114.556300 85 635ft 0kts
14-Sep-23 15:44 35.164756 -114.556300 85 635ft 0kts
14-Sep-23 15:45 35.164916 -114.556314 291 634ft 4kts
14-Sep-23 15:47 35.164938 -114.556385 294 634ft 0kts
14-Sep-23 15:48 35.164939 -114.556388 294 634ft 0kts
14-Sep-23 15:49 35.158553 -114.556843 188 656ft 70kts
14-Sep-23 15:50 35.143238 -114.557176 222 710ft 0kts
14-Sep-23 15:51 35.143145 -114.557460 259 710ft 0kts
14-Sep-23 15:52 35.143145 -114.557460 259 710ft 0kts
14-Sep-23 15:53 35.143869 -114.558533 354 705ft 33kts
14-Sep-23 15:54 35.176973 -114.558714 357 1855ft 150kts
14-Sep-23 15:55 35.205126 -114.532009 109 3900ft 178kts
14-Sep-23 15:56 35.159567 -114.513235 184 5804ft 183kts
14-Sep-23 15:57 35.108462 -114.521656 192 7637ft 189kts
14-Sep-23 15:58 35.054709 -114.530431 182 9775ft 194kts
14-Sep-23 15:59 34.999324 -114.525365 173 11841ft 201kts
14-Sep-23 16:00 34.943689 -114.513079 173 13968ft 206kts
14-Sep-23 16:01 34.886308 -114.500513 173 15877ft 212kts
14-Sep-23 16:02 34.826911 -114.487514 174 17851ft 220kts
14-Sep-23 16:03 34.772280 -114.455130 123 19541ft 239kts
14-Sep-23 16:04 34.763516 -114.373711 92 21162ft 251kts
14-Sep-23 16:05 34.761370 -114.287022 92 22841ft 261kts
14-Sep-23 16:06 34.758766 -114.188757 92 22837ft 313kts
14-Sep-23 16:07 34.755889 -114.079973 92 22840ft 326kts
14-Sep-23 16:08 34.752845 -113.969074 92 22849ft 329kts
14-Sep-23 16:09 34.749706 -113.857463 92 22857ft 330kts
14-Sep-23 16:10 34.746456 -113.746123 93 22857ft 330kts
14-Sep-23 16:11 34.743116 -113.634632 93 22860ft 330kts
14-Sep-23 16:11 34.740237 -113.541514 93 22867ft 331kts
14-Sep-23 16:13 34.736315 -113.411033 93 22879ft 333kts
14-Sep-23 16:14 34.732575 -113.298421 93 22891ft 332kts
14-Sep-23 16:15 34.728719 -113.184802 92 21978ft 340kts
14-Sep-23 16:16 34.724751 -113.070243 92 20801ft 336kts
14-Sep-23 16:16 34.708471 -112.981511 135 19847ft 323kts
14-Sep-23 16:17 34.636231 -112.927637 144 18273ft 292kts
14-Sep-23 16:19 34.580944 -112.844680 131 14922ft 255kts
14-Sep-23 16:20 34.537918 -112.779227 130 12062ft 241kts
14-Sep-23 16:20 34.503763 -112.727232 131 9829ft 229kts
14-Sep-23 16:21 34.467604 -112.671639 123 9805ft 210kts
14-Sep-23 16:22 34.477956 -112.606295 39 9380ft 224kts
14-Sep-23 16:23 34.523943 -112.557769 39 8231ft 187kts
14-Sep-23 16:25 34.561991 -112.517616 39 7319ft 144kts
14-Sep-23 16:25 34.585058 -112.492245 43 6573ft 130kts
14-Sep-23 16:26 34.611775 -112.465294 33 6068ft 125kts
14-Sep-23 16:27 34.635420 -112.439697 36 5522ft 90kts
14-Sep-23 16:28 34.652684 -112.421463 40 5012ft 41kts
14-Sep-23 16:29 34.653867 -112.418679 131 5002ft 0kts
14-Sep-23 16:30 34.652395 -112.419970 221 5010ft 21kts

Navigation Log

Ident Type
Flight plan parsing failed, navigation log unavailable